Time;durP1;ratioP1;P1;durP2;ratioP2;P2;SDS_P1;SDS_P2;PMS_P1;PMS_P2;Temp;Humidity;BMP_temperature;BMP_pressure;BME280_temperature;BME280_humidity;BME280_pressure;Samples;Min_cycle;Max_cycle;Signal;HPM_P1;HPM_P2
2021/01/22 00:02:10;;;;;;;25.13;16.73;;;;;;;-0.16;75.39;100482.19;1714913;82;21612;-38
2021/01/22 00:04:38;;;;;;;23.23;15.30;;;;;;;-0.16;75.42;100480.43;1717945;82;21407;-39
2021/01/22 00:07:06;;;;;;;22.57;16.77;;;;;;;-0.14;75.50;100479.11;1709515;82;21148;-39
2021/01/22 00:09:33;;;;;;;26.57;17.23;;;;;;;-0.12;75.51;100477.34;1715961;82;21117;-39
2021/01/22 00:12:03;;;;;;;20.87;15.37;;;;;;;-0.11;75.54;100475.13;1714936;82;21101;-38
2021/01/22 00:14:31;;;;;;;24.50;17.73;;;;;;;-0.08;75.54;100465.45;1714156;82;21689;-39
2021/01/22 00:16:58;;;;;;;24.80;16.90;;;;;;;-0.07;75.52;100467.20;1710615;82;21152;-39
2021/01/22 00:19:28;;;;;;;30.20;18.70;;;;;;;-0.04;75.54;100466.28;1720273;82;21156;-38
2021/01/22 00:21:56;;;;;;;24.87;16.63;;;;;;;-0.05;75.55;100460.18;1713972;82;21169;-38
2021/01/22 00:24:24;;;;;;;25.83;16.97;;;;;;;-0.03;75.54;100466.23;1712092;82;21113;-39
2021/01/22 00:26:53;;;;;;;24.40;16.50;;;;;;;-0.01;75.58;100460.53;1713612;82;21267;-40
2021/01/22 00:29:20;;;;;;;23.37;16.77;;;;;;;-0.02;75.60;100458.81;1713588;82;21161;-39
2021/01/22 00:31:48;;;;;;;25.90;17.20;;;;;;;-0.02;75.62;100455.33;1713518;82;21143;-40
2021/01/22 00:34:15;;;;;;;23.63;16.23;;;;;;;-0.01;75.65;100453.98;1711359;82;21460;-38
2021/01/22 00:36:43;;;;;;;23.42;17.65;;;;;;;0.01;75.67;100457.04;1714253;82;21161;-39
2021/01/22 00:39:10;;;;;;;25.93;17.93;;;;;;;0.02;75.70;100453.06;1713381;82;21185;-40
2021/01/22 00:41:38;;;;;;;26.23;17.87;;;;;;;0.03;75.67;100445.64;1712840;82;21161;-39
2021/01/22 00:44:06;;;;;;;24.20;17.00;;;;;;;0.04;75.69;100443.42;1715008;82;21150;-38
2021/01/22 00:46:33;;;;;;;26.00;16.90;;;;;;;0.06;75.72;100444.72;1715798;82;21137;-37
2021/01/22 00:49:02;;;;;;;25.17;17.67;;;;;;;0.04;75.74;100439.48;1712428;83;21177;-39
2021/01/22 00:51:30;;;;;;;26.97;18.13;;;;;;;0.04;75.78;100434.70;1709276;82;21109;-38
2021/01/22 00:53:58;;;;;;;24.70;16.90;;;;;;;0.05;75.80;100436.00;1714599;82;21133;-40
2021/01/22 00:56:28;;;;;;;24.63;17.10;;;;;;;0.04;75.81;100436.87;1715616;82;21160;-42
2021/01/22 00:58:57;;;;;;;26.13;18.33;;;;;;;0.06;75.83;100435.09;1714014;82;21684;-39
2021/01/22 01:01:27;;;;;;;24.13;17.53;;;;;;;0.06;75.85;100431.16;1713780;82;21129;-38
2021/01/22 01:03:56;;;;;;;24.23;16.10;;;;;;;0.07;75.87;100432.88;1713578;82;21155;-39
2021/01/22 01:06:24;;;;;;;25.50;17.73;;;;;;;0.08;75.88;100429.84;1716225;82;21173;-39
2021/01/22 01:08:53;;;;;;;23.67;17.53;;;;;;;0.09;75.88;100423.23;1715819;82;21165;-38
2021/01/22 01:11:37;;;;;;;21.83;15.67;;;;;;;0.11;75.92;100420.59;1715915;82;21663;-38
2021/01/22 01:14:17;;;;;;;24.37;16.73;;;;;;;0.13;75.93;100419.68;1760540;79;23106;-37
2021/01/22 01:16:44;;;;;;;25.43;17.43;;;;;;;0.11;75.97;100416.21;1731850;82;21530;-42
2021/01/22 01:19:12;;;;;;;26.35;18.35;;;;;;;0.12;75.94;100407.89;1730312;82;21157;-39
2021/01/22 01:21:39;;;;;;;25.67;16.63;;;;;;;0.12;75.99;100407.44;1736690;80;21673;-39
2021/01/22 01:24:08;;;;;;;25.97;15.70;;;;;;;0.11;75.98;100407.03;1732965;82;21594;-37
2021/01/22 01:26:35;;;;;;;26.53;17.27;;;;;;;0.13;76.01;100406.56;1735580;80;21170;-38
2021/01/22 01:29:03;;;;;;;27.57;17.20;;;;;;;0.14;76.01;100396.48;1732234;82;21138;-37
2021/01/22 01:31:31;;;;;;;28.37;18.33;;;;;;;0.15;76.03;100401.27;1734140;80;21657;-37
2021/01/22 01:33:58;;;;;;;26.70;17.50;;;;;;;0.13;76.03;100398.70;1741908;80;21138;-41
2021/01/22 01:36:26;;;;;;;24.13;18.27;;;;;;;0.15;76.07;100393.41;1730933;82;21575;-40
2021/01/22 01:38:54;;;;;;;24.10;16.73;;;;;;;0.15;76.06;100392.09;1734419;82;22101;-40
2021/01/22 01:41:22;;;;;;;26.27;17.82;;;;;;;0.13;76.10;100390.83;1734124;80;21558;-40
2021/01/22 01:43:50;;;;;;;22.30;15.33;;;;;;;0.13;76.13;100392.59;1731699;80;22327;-40
2021/01/22 01:46:17;;;;;;;25.73;18.17;;;;;;;0.14;76.17;100387.30;1732521;82;21129;-40
2021/01/22 01:48:45;;;;;;;27.30;16.93;;;;;;;0.14;76.17;100383.82;1737821;82;21149;-38
2021/01/22 01:51:13;;;;;;;25.37;17.23;;;;;;;0.15;76.23;100385.54;1732113;82;21130;-38
2021/01/22 01:53:40;;;;;;;27.17;17.17;;;;;;;0.13;76.26;100389.97;1735794;80;21458;-38
2021/01/22 01:56:08;;;;;;;28.12;20.37;;;;;;;0.09;76.32;100382.58;1733626;80;21658;-39
2021/01/22 01:58:35;;;;;;;24.57;17.62;;;;;;;0.08;76.40;100382.63;1731496;80;21117;-40
2021/01/22 02:01:03;;;;;;;23.93;17.27;;;;;;;0.06;76.46;100381.78;1699897;82;21130;-38
2021/01/22 02:03:31;;;;;;;26.13;17.83;;;;;;;0.05;76.54;100380.92;1737401;80;21655;-38
2021/01/22 02:05:59;;;;;;;24.80;16.10;;;;;;;0.06;76.60;100381.33;1736316;80;21864;-38
2021/01/22 02:08:26;;;;;;;27.32;17.85;;;;;;;0.07;76.65;100377.80;1677594;83;21160;-41
2021/01/22 02:10:54;;;;;;;23.77;17.03;;;;;;;0.09;76.66;100375.17;1696335;84;21653;-40
2021/01/22 02:13:21;;;;;;;26.30;17.90;;;;;;;0.10;76.68;100380.40;1691743;83;21698;-38
2021/01/22 02:15:49;;;;;;;24.40;16.50;;;;;;;0.12;76.69;100372.48;1679286;84;21203;-38
2021/01/22 02:18:16;;;;;;;24.77;17.10;;;;;;;0.13;76.69;100371.16;1685352;83;21154;-41
2021/01/22 02:20:59;;;;;;;27.53;17.63;;;;;;;0.14;76.70;100366.77;1682696;83;21174;-40
2021/01/22 02:23:26;;;;;;;23.13;16.17;;;;;;;0.13;76.72;100360.67;1686415;83;21142;-36
2021/01/22 02:26:00;;;;;;;25.57;15.63;;;;;;;0.12;76.76;100362.85;1683691;83;21170;-39
2021/01/22 02:28:28;;;;;;;26.87;17.25;;;;;;;0.12;76.81;100353.67;1686012;83;21178;-40
2021/01/22 02:30:56;;;;;;;26.10;17.83;;;;;;;0.13;76.89;100365.91;1678725;83;21558;-39
2021/01/22 02:33:23;;;;;;;29.13;17.80;;;;;;;0.13;76.93;100363.29;1684142;83;21972;-38
2021/01/22 02:35:53;;;;;;;28.13;19.17;;;;;;;0.13;76.93;100358.05;1682773;83;21170;-40
2021/01/22 02:38:21;;;;;;;26.60;16.67;;;;;;;0.13;76.95;100359.36;1683625;83;21154;-40
2021/01/22 02:40:48;;;;;;;25.50;16.77;;;;;;;0.12;77.01;100354.98;1653601;84;21431;-40
2021/01/22 02:43:16;;;;;;;23.00;17.27;;;;;;;0.12;77.08;100348.88;1683926;84;21670;-40
2021/01/22 02:45:44;;;;;;;22.80;14.47;;;;;;;0.13;77.09;100353.25;1654441;84;21598;-39
2021/01/22 02:48:12;;;;;;;28.80;16.23;;;;;;;0.14;77.16;100357.14;1676883;83;21141;-40
2021/01/22 02:50:40;;;;;;;25.12;16.57;;;;;;;0.14;77.17;100349.72;1686980;83;21153;-40
2021/01/22 02:53:09;;;;;;;27.30;17.00;;;;;;;0.12;77.17;100352.36;1688062;84;21177;-39
2021/01/22 02:55:37;;;;;;;23.03;15.27;;;;;;;0.14;77.23;100352.34;1684069;84;21223;-40
2021/01/22 02:58:16;;;;;;;26.97;17.50;;;;;;;0.14;77.25;100354.97;1688754;83;21194;-39
2021/01/22 03:00:49;;;;;;;26.53;16.23;;;;;;;0.13;77.29;100346.25;1676860;84;21153;-37
2021/01/22 03:03:45;;;;;;;27.33;17.17;;;;;;;0.15;77.30;100353.64;1682153;83;21696;-37
2021/01/22 03:06:16;;;;;;;23.00;14.90;;;;;;;0.14;77.37;100347.96;1666885;83;21189;-39
2021/01/22 03:08:44;;;;;;;28.27;16.33;;;;;;;0.13;77.39;100350.18;1699086;83;21158;-39
2021/01/22 03:11:11;;;;;;;22.63;15.27;;;;;;;0.13;77.45;100346.70;1696195;83;21149;-37
2021/01/22 03:13:39;;;;;;;25.17;15.17;;;;;;;0.15;77.47;100346.20;1659090;84;21186;-37
2021/01/22 03:16:07;;;;;;;19.97;13.90;;;;;;;0.16;77.50;100348.80;1676803;84;21178;-40
2021/01/22 03:18:35;;;;;;;24.47;16.83;;;;;;;0.18;77.46;100346.17;1680776;84;21174;-39
2021/01/22 03:21:05;;;;;;;22.80;15.50;;;;;;;0.21;77.49;100344.80;1681260;84;21198;-39
2021/01/22 03:23:33;;;;;;;20.40;15.25;;;;;;;0.24;77.45;100336.00;1653175;84;21669;-38
2021/01/22 03:26:00;;;;;;;26.27;16.33;;;;;;;0.23;77.45;100333.83;1677616;83;21182;-42
2021/01/22 03:28:28;;;;;;;25.53;17.30;;;;;;;0.25;77.41;100335.09;1678177;84;21161;-39
2021/01/22 03:30:56;;;;;;;27.87;16.77;;;;;;;0.25;77.42;100333.78;1680321;84;21174;-39
2021/01/22 03:33:24;;;;;;;24.93;15.97;;;;;;;0.24;77.45;100327.68;1679869;84;21154;-39
2021/01/22 03:35:52;;;;;;;23.17;14.23;;;;;;;0.23;77.47;100327.70;1680874;84;22123;-37
2021/01/22 03:38:20;;;;;;;24.27;16.73;;;;;;;0.20;77.54;100326.89;1675044;84;21502;-41
2021/01/22 03:40:47;;;;;;;21.03;14.70;;;;;;;0.20;77.58;100319.44;1679982;83;21677;-40
2021/01/22 03:43:15;;;;;;;22.50;15.70;;;;;;;0.22;77.59;100324.21;1685866;84;21138;-38
2021/01/22 03:45:42;;;;;;;24.57;15.87;;;;;;;0.21;77.63;100312.86;1676921;84;21177;-38
2021/01/22 03:48:10;;;;;;;26.03;17.63;;;;;;;0.22;77.69;100309.79;1678855;83;21597;-38
2021/01/22 03:50:38;;;;;;;27.03;16.83;;;;;;;0.23;77.68;100306.29;1678380;84;21185;-38
2021/01/22 03:53:06;;;;;;;26.13;17.47;;;;;;;0.22;77.72;100300.61;1680323;83;21162;-38
2021/01/22 03:55:36;;;;;;;23.77;15.73;;;;;;;0.21;77.79;100303.69;1678444;83;21193;-38
2021/01/22 03:58:04;;;;;;;21.43;14.90;;;;;;;0.20;77.86;100311.56;1680572;83;21602;-39
2021/01/22 04:00:32;;;;;;;25.02;15.60;;;;;;;0.17;77.90;100307.24;1679383;84;21197;-39
2021/01/22 04:02:59;;;;;;;20.60;14.53;;;;;;;0.18;77.95;100308.99;1695063;83;21430;-37
2021/01/22 04:05:28;;;;;;;23.25;15.50;;;;;;;0.18;77.99;100310.76;1691207;84;21152;-39
2021/01/22 04:07:56;;;;;;;25.73;17.00;;;;;;;0.19;78.04;100304.16;1691799;83;21129;-39
2021/01/22 04:10:23;;;;;;;24.07;15.70;;;;;;;0.21;78.08;100304.14;1677092;84;21137;-39
2021/01/22 04:12:51;;;;;;;23.47;15.60;;;;;;;0.23;78.09;100308.02;1679377;83;21146;-40
2021/01/22 04:15:18;;;;;;;22.03;14.80;;;;;;;0.24;78.07;100308.00;1685974;83;21618;-37
2021/01/22 04:17:46;;;;;;;20.47;13.93;;;;;;;0.28;78.06;100319.30;1659131;84;21161;-40
2021/01/22 04:20:20;;;;;;;22.25;14.80;;;;;;;0.30;78.08;100313.58;1721265;81;21154;-39
2021/01/22 04:22:43;;;;;;;26.33;16.48;;;;;;;0.33;78.02;100317.02;1715496;81;21107;-38
2021/01/22 04:25:11;;;;;;;25.97;18.00;;;;;;;0.34;78.02;100304.31;1720000;81;21594;-38
2021/01/22 04:27:39;;;;;;;24.73;15.90;;;;;;;0.36;77.98;100316.10;1719681;82;21166;-40
2021/01/22 04:30:08;;;;;;;23.97;16.43;;;;;;;0.37;77.96;100329.63;1723115;82;21150;-38
2021/01/22 04:32:36;;;;;;;27.10;18.40;;;;;;;0.37;78.00;100315.20;1720616;82;21663;-38
2021/01/22 04:35:06;;;;;;;24.70;16.07;;;;;;;0.39;77.99;100319.52;1719594;82;21114;-41
2021/01/22 04:37:33;;;;;;;25.27;17.83;;;;;;;0.42;77.96;100315.52;1720441;81;21161;-37
2021/01/22 04:40:01;;;;;;;29.40;18.70;;;;;;;0.43;77.93;100309.84;1722265;81;21908;-45
2021/01/22 04:42:29;;;;;;;23.90;16.30;;;;;;;0.44;77.91;100308.94;1720992;82;21146;-39
2021/01/22 04:44:57;;;;;;;24.17;17.03;;;;;;;0.45;77.90;100309.80;1723739;82;21583;-48
2021/01/22 04:47:24;;;;;;;26.00;17.67;;;;;;;0.43;77.87;100314.64;1658926;84;21488;-39
2021/01/22 04:49:52;;;;;;;24.93;17.77;;;;;;;0.46;77.86;100315.48;1683543;83;21597;-38
2021/01/22 04:52:20;;;;;;;25.00;17.07;;;;;;;0.47;77.85;100314.58;1679730;83;21126;-37
2021/01/22 04:54:47;;;;;;;21.85;15.23;;;;;;;0.49;77.84;100320.66;1680839;84;21202;-40
2021/01/22 04:57:15;;;;;;;25.43;18.77;;;;;;;0.50;77.81;100322.37;1678204;84;21138;-40
2021/01/22 04:59:50;;;;;;;24.77;17.37;;;;;;;0.51;77.79;100317.56;1682012;84;21190;-39
2021/01/22 05:02:21;;;;;;;27.27;18.25;;;;;;;0.52;77.77;100312.72;1678309;84;21169;-49
2021/01/22 05:04:51;;;;;;;25.43;19.00;;;;;;;0.53;77.72;100298.27;1676739;84;21161;-37
2021/01/22 05:07:22;;;;;;;27.60;18.60;;;;;;;0.56;77.65;100294.72;1679892;84;21710;-38
2021/01/22 05:09:49;;;;;;;25.50;15.32;;;;;;;0.56;77.64;100301.28;1677313;84;21661;-37
2021/01/22 05:12:18;;;;;;;25.60;17.10;;;;;;;0.56;77.63;100306.08;1679975;83;21207;-39
2021/01/22 05:14:46;;;;;;;22.15;16.42;;;;;;;0.56;77.63;100292.95;1725614;81;21137;-40
2021/01/22 05:17:13;;;;;;;25.43;18.73;;;;;;;0.59;77.59;100302.52;1727302;81;21107;-37
2021/01/22 05:19:43;;;;;;;28.55;19.25;;;;;;;0.56;77.54;100299.52;1728784;81;21145;-38
2021/01/22 05:22:15;;;;;;;26.80;18.90;;;;;;;0.55;77.59;100299.53;1726558;80;21138;-39
2021/01/22 05:24:42;;;;;;;31.85;17.85;;;;;;;0.53;77.61;100300.89;1675943;84;21153;-39
2021/01/22 05:27:12;;;;;;;24.75;16.95;;;;;;;0.54;77.61;100311.80;1682200;83;21161;-38
2021/01/22 05:29:43;;;;;;;30.45;18.37;;;;;;;0.55;77.63;100311.34;1723693;82;21153;-40
2021/01/22 05:32:28;;;;;;;28.17;17.37;;;;;;;0.56;77.63;100315.72;1726400;81;21117;-40
2021/01/22 05:34:57;;;;;;;25.30;17.43;;;;;;;0.57;77.63;100317.42;1646442;86;21198;-37
2021/01/22 05:37:25;;;;;;;25.52;17.32;;;;;;;0.58;77.63;100309.95;1626014;86;21159;-40
2021/01/22 05:40:11;;;;;;;29.07;18.03;;;;;;;0.60;77.62;100314.73;1640261;85;21784;-38
2021/01/22 05:42:56;;;;;;;28.03;17.10;;;;;;;0.62;77.60;100308.56;1622416;86;21129;-40
2021/01/22 05:45:43;;;;;;;24.43;15.93;;;;;;;0.64;77.57;100313.79;1638794;86;21662;-41
2021/01/22 05:48:24;;;;;;;26.55;18.62;;;;;;;0.64;77.53;100318.59;1639891;85;21268;-38
2021/01/22 05:50:55;;;;;;;26.40;18.30;;;;;;;0.64;77.53;100310.71;1621447;86;21199;-38
2021/01/22 05:53:23;;;;;;;28.85;18.82;;;;;;;0.66;77.52;100311.14;1633830;85;21166;-39
2021/01/22 05:56:17;;;;;;;24.77;17.30;;;;;;;0.67;77.51;100309.78;1624716;86;21160;-38
2021/01/22 05:58:47;;;;;;;25.83;18.40;;;;;;;0.68;77.52;100314.58;1647684;85;21212;-38
2021/01/22 06:01:22;;;;;;;26.30;17.77;;;;;;;0.69;77.47;100313.70;1622382;86;21159;-38
2021/01/22 06:03:51;;;;;;;29.10;19.17;;;;;;;0.69;77.49;100305.83;1644167;86;21175;-38
2021/01/22 06:06:20;;;;;;;26.97;18.50;;;;;;;0.69;77.48;100305.83;1647175;85;21540;-39
2021/01/22 06:08:53;;;;;;;23.83;17.23;;;;;;;0.67;77.48;100301.91;1619134;88;21646;-41
2021/01/22 06:11:31;;;;;;;26.80;16.40;;;;;;;0.72;77.51;100299.19;1765647;79;23136;-39
2021/01/22 06:14:01;;;;;;;25.82;17.60;;;;;;;0.69;77.52;100305.83;1742499;80;21446;-39
2021/01/22 06:16:30;;;;;;;;;;;;;;;0.73;77.86;100308.78;1737923;80;21598;-38
2021/01/22 06:19:06;;;;;;;22.42;14.60;;;;;;;0.78;78.49;100319.63;1738760;82;20732;-39
2021/01/22 06:21:43;;;;;;;25.57;16.80;;;;;;;0.84;78.18;100320.80;1737638;80;21141;-39
2021/01/22 06:24:10;;;;;;;28.17;19.37;;;;;;;0.86;78.01;100307.20;1741945;80;21167;-37
2021/01/22 06:26:39;;;;;;;27.42;18.73;;;;;;;0.90;77.80;100309.30;1744596;80;21146;-38
2021/01/22 06:29:08;;;;;;;23.42;15.70;;;;;;;0.91;77.67;100305.80;1735356;82;21162;-38
2021/01/22 06:31:38;;;;;;;25.68;17.57;;;;;;;0.94;77.55;100299.61;1737306;80;21641;-41
2021/01/22 06:34:06;;;;;;;28.30;18.70;;;;;;;0.95;77.41;100300.02;1738133;80;21649;-41
2021/01/22 06:36:33;;;;;;;26.60;19.35;;;;;;;0.94;77.34;100301.78;1708167;82;21148;-40
2021/01/22 06:39:02;;;;;;;28.27;20.15;;;;;;;0.95;77.21;100298.70;1697751;84;21149;-37
2021/01/22 06:41:31;;;;;;;29.15;19.50;;;;;;;0.93;77.16;100296.55;1697241;82;21612;-37
2021/01/22 06:43:59;;;;;;;32.95;21.25;;;;;;;0.93;77.16;100300.48;1668970;82;21586;-39
2021/01/22 06:46:29;;;;;;;26.00;17.55;;;;;;;0.90;77.15;100301.42;1693971;84;21168;-39
2021/01/22 06:49:04;;;;;;;29.83;19.47;;;;;;;0.91;77.18;100301.85;1733923;80;21130;-38
2021/01/22 06:51:34;;;;;;;24.98;17.67;;;;;;;0.92;77.19;100310.59;1730708;82;21126;-37
2021/01/22 06:54:20;;;;;;;26.35;17.52;;;;;;;0.96;77.12;100309.19;1734916;82;21173;-38
2021/01/22 06:57:06;;;;;;;26.68;18.65;;;;;;;0.97;77.12;100300.39;1712713;82;21134;-40
2021/01/22 06:59:39;;;;;;;27.10;18.73;;;;;;;0.99;77.03;100299.91;1709261;82;21109;-40
2021/01/22 07:02:35;;;;;;;23.50;17.27;;;;;;;1.02;77.00;100299.84;1713901;82;21702;-40
2021/01/22 07:05:25;;;;;;;23.77;15.80;;;;;;;1.04;76.88;100293.25;1707550;82;21680;-40
2021/01/22 07:07:53;;;;;;;26.70;18.32;;;;;;;1.04;76.82;100286.23;1690283;82;21124;-39
2021/01/22 07:10:21;;;;;;;27.65;18.62;;;;;;;1.04;76.79;100288.86;1708293;82;21347;-39
2021/01/22 07:12:49;;;;;;;27.80;19.07;;;;;;;1.07;76.74;100290.09;1699115;81;21141;-37
2021/01/22 07:15:26;;;;;;;26.62;19.48;;;;;;;1.10;76.71;100294.87;1712825;81;21161;-42
2021/01/22 07:18:01;;;;;;;25.60;18.23;;;;;;;1.13;76.66;100298.73;1713798;81;21117;-40
2021/01/22 07:20:29;;;;;;;25.77;18.05;;;;;;;1.15;76.56;100298.26;1699223;82;21126;-42
2021/01/22 07:23:02;;;;;;;28.00;19.17;;;;;;;1.17;76.52;100295.16;1700769;82;21154;-40
2021/01/22 07:25:42;;;;;;;29.20;20.12;;;;;;;1.20;76.37;100292.45;1706287;81;21169;-41
2021/01/22 07:28:22;;;;;;;29.95;21.05;;;;;;;1.20;76.30;100293.77;1697516;82;21163;-40
2021/01/22 07:30:50;;;;;;;27.37;18.45;;;;;;;1.23;76.24;100295.00;1700337;82;21145;-38
2021/01/22 07:33:36;;;;;;;29.00;20.55;;;;;;;1.25;76.14;100298.45;1713648;82;21157;-38
2021/01/22 07:36:19;;;;;;;28.47;20.05;;;;;;;1.25;76.09;100295.83;1691984;82;21637;-38
2021/01/22 07:38:50;;;;;;;32.00;22.77;;;;;;;1.24;76.09;100298.06;1698356;82;21142;-40
2021/01/22 07:41:21;;;;;;;31.75;21.27;;;;;;;1.23;76.07;100298.48;1700893;82;21133;-40
2021/01/22 07:44:03;;;;;;;27.42;19.37;;;;;;;1.22;76.01;100291.97;1714548;81;21102;-38
2021/01/22 07:46:45;;;;;;;23.80;16.90;;;;;;;1.23;76.05;100293.68;1701662;82;21477;-41
2021/01/22 07:49:14;;;;;;;24.30;16.93;;;;;;;1.27;76.02;100299.30;1698699;82;21357;-40
2021/01/22 07:51:42;;;;;;;30.72;19.23;;;;;;;1.30;75.94;100297.91;1698239;82;21171;-40
2021/01/22 07:54:11;;;;;;;29.00;19.77;;;;;;;1.28;75.84;100300.55;1718700;81;21141;-49
2021/01/22 07:56:40;;;;;;;27.90;21.00;;;;;;;1.29;75.87;100299.67;1704831;82;21160;-55
2021/01/22 07:59:13;;;;;;;29.37;19.25;;;;;;;1.30;75.81;100298.76;1700601;82;22016;-39
2021/01/22 08:01:41;;;;;;;27.27;19.12;;;;;;;1.34;75.79;100303.52;1708349;81;21630;-40
2021/01/22 08:04:09;;;;;;;24.80;17.98;;;;;;;1.35;75.69;100299.97;1717414;81;21145;-39
2021/01/22 08:06:48;;;;;;;22.00;16.27;;;;;;;1.37;75.70;100309.14;1716770;81;21445;-40
2021/01/22 08:09:17;;;;;;;27.27;19.95;;;;;;;1.41;75.69;100305.10;1719793;81;21180;-39
2021/01/22 08:11:48;;;;;;;26.80;18.13;;;;;;;1.45;75.60;100297.53;1714457;81;21291;-38
2021/01/22 08:14:30;;;;;;;27.70;18.30;;;;;;;1.49;75.47;100294.41;1712301;82;21739;-40
2021/01/22 08:16:59;;;;;;;24.82;17.00;;;;;;;1.50;75.39;100301.37;1712136;82;21148;-40
2021/01/22 08:19:27;;;;;;;20.30;16.23;;;;;;;1.54;75.36;100292.53;1714738;82;21724;-39
2021/01/22 08:21:55;;;;;;;26.35;18.62;;;;;;;1.57;75.23;100308.22;1710883;82;21122;-38
2021/01/22 08:24:23;;;;;;;30.40;20.20;;;;;;;1.60;75.12;100295.45;1708201;82;21299;-39
2021/01/22 08:27:00;;;;;;;27.60;19.77;;;;;;;1.60;75.03;100295.45;1708378;82;21141;-40
2021/01/22 08:29:32;;;;;;;27.37;20.02;;;;;;;1.60;75.03;100287.56;1706873;82;21097;-38
2021/01/22 08:32:01;;;;;;;25.50;17.82;;;;;;;1.60;75.05;100294.99;1710818;82;21576;-38
2021/01/22 08:34:29;;;;;;;23.87;15.88;;;;;;;1.58;74.96;100290.22;1684587;82;21165;-39
2021/01/22 08:36:57;;;;;;;24.43;17.02;;;;;;;1.61;74.95;100296.70;1714108;82;21145;-37
2021/01/22 08:39:25;;;;;;;26.40;18.27;;;;;;;1.65;74.93;100293.57;1709282;82;21128;-40
2021/01/22 08:41:53;;;;;;;26.40;19.85;;;;;;;1.68;74.84;100288.23;1705767;82;21134;-39
2021/01/22 08:44:22;;;;;;;34.13;19.48;;;;;;;1.72;74.77;100293.84;1711583;82;21159;-34
2021/01/22 08:46:53;;;;;;;29.05;18.87;;;;;;;1.83;75.35;100286.52;1710699;82;21138;-36
2021/01/22 08:49:21;;;;;;;22.48;16.90;;;;;;;2.20;75.47;100288.66;1715598;82;21290;-33
2021/01/22 08:51:49;;;;;;;25.37;18.50;;;;;;;2.63;74.82;100280.87;1707901;82;21892;-34
2021/01/22 08:54:17;;;;;;;25.35;18.57;;;;;;;2.98;73.88;100275.41;1708088;82;22013;-32
2021/01/22 08:56:56;;;;;;;27.15;18.98;;;;;;;3.30;73.24;100267.41;1709421;82;21129;-34
2021/01/22 08:59:24;;;;;;;28.87;20.68;;;;;;;3.55;72.29;100261.73;1697622;82;21343;-33
2021/01/22 09:01:58;;;;;;;26.70;18.40;;;;;;;3.77;71.14;100261.03;1686995;83;21141;-34
2021/01/22 09:08:36;;;;;;;24.67;17.73;;;;;;;4.05;69.72;100253.87;1706107;82;21085;-36
2021/01/22 09:11:03;;;;;;;25.60;19.10;;;;;;;4.17;68.77;100258.34;1665353;81;21187;-33
2021/01/22 09:13:31;;;;;;;28.27;20.35;;;;;;;4.19;67.98;100266.60;1721467;81;21177;-40
2021/01/22 09:16:06;;;;;;;22.55;18.23;;;;;;;4.19;67.50;100253.87;1712045;82;21152;-40
2021/01/22 09:18:33;;;;;;;23.95;17.90;;;;;;;4.06;67.20;100249.02;1728910;81;21141;-39
2021/01/22 09:21:05;;;;;;;24.18;18.25;;;;;;;3.87;67.18;100249.25;1705522;82;21149;-38
2021/01/22 09:23:35;;;;;;;28.52;19.35;;;;;;;3.72;67.46;100248.46;1710651;82;21662;-39
2021/01/22 09:26:03;;;;;;;25.55;18.77;;;;;;;3.57;67.42;100250.69;1725451;81;21149;-39
2021/01/22 09:28:31;;;;;;;21.93;17.73;;;;;;;3.39;67.78;100252.62;1718998;82;21311;-38
2021/01/22 09:30:59;;;;;;;27.60;20.05;;;;;;;3.27;68.08;100244.64;1708362;82;21157;-41
2021/01/22 09:33:26;;;;;;;24.47;19.25;;;;;;;3.21;68.44;100244.85;1723368;81;21945;-41
2021/01/22 09:35:56;;;;;;;26.95;19.98;;;;;;;3.16;68.73;100249.41;1708200;82;21114;-38
2021/01/22 09:38:25;;;;;;;26.30;18.17;;;;;;;3.14;68.79;100238.05;1723928;81;21152;-39
2021/01/22 09:40:53;;;;;;;25.75;18.35;;;;;;;3.08;68.90;100240.42;1721564;81;21153;-40
2021/01/22 09:43:20;;;;;;;24.72;18.02;;;;;;;3.04;69.07;100242.73;1720530;81;21149;-38
2021/01/22 09:45:50;;;;;;;25.25;18.60;;;;;;;3.01;69.24;100238.42;1726072;81;21125;-41
2021/01/22 09:48:18;;;;;;;26.27;19.37;;;;;;;2.98;69.27;100237.21;1715840;82;21141;-39
2021/01/22 09:50:47;;;;;;;26.20;19.42;;;;;;;2.94;69.41;100230.30;1732213;81;21149;-40
2021/01/22 09:53:15;;;;;;;23.10;18.32;;;;;;;2.92;69.50;100227.30;1715708;82;21948;-39
2021/01/22 09:55:44;;;;;;;30.45;25.27;;;;;;;2.90;69.63;100220.79;1714359;82;21146;-40
2021/01/22 09:58:12;;;;;;;29.63;24.27;;;;;;;2.89;69.70;100213.78;1720364;81;21541;-40
2021/01/22 10:00:39;;;;;;;30.60;22.65;;;;;;;2.90;69.84;100205.41;1720269;81;21656;-39
2021/01/22 10:03:07;;;;;;;26.42;21.62;;;;;;;2.90;69.89;100210.68;1707360;82;21731;-40
2021/01/22 10:05:35;;;;;;;26.77;21.10;;;;;;;2.90;70.01;100211.57;1723321;81;21557;-41
2021/01/22 10:08:03;;;;;;;27.22;19.07;;;;;;;2.94;70.06;100212.32;1707507;82;21472;-39
2021/01/22 10:10:30;;;;;;;25.12;19.37;;;;;;;2.96;70.05;100207.41;1685939;82;21881;-40
2021/01/22 10:12:58;;;;;;;22.60;18.27;;;;;;;3.00;70.09;100203.78;1703710;82;21135;-39
2021/01/22 10:15:26;;;;;;;25.15;17.75;;;;;;;3.03;70.07;100201.05;1711866;81;21113;-40
2021/01/22 10:17:54;;;;;;;25.32;19.05;;;;;;;3.08;69.88;100194.78;1699460;82;21465;-39
2021/01/22 10:20:21;;;;;;;24.85;18.90;;;;;;;3.11;69.87;100194.67;1703633;82;21178;-40
2021/01/22 10:22:49;;;;;;;24.45;19.05;;;;;;;3.13;69.65;100192.39;1705115;82;21276;-41
2021/01/22 10:25:17;;;;;;;24.15;18.40;;;;;;;3.15;69.56;100185.30;1703112;82;21158;-40
2021/01/22 10:27:44;;;;;;;23.75;18.20;;;;;;;3.16;69.53;100194.06;1699350;82;21539;-40
2021/01/22 10:30:13;;;;;;;25.17;18.82;;;;;;;3.17;69.44;100188.72;1713908;81;21167;-42
2021/01/22 10:32:41;;;;;;;25.10;17.02;;;;;;;3.17;69.31;100179.97;1715294;81;21144;-40
2021/01/22 10:35:10;;;;;;;23.20;17.90;;;;;;;3.17;69.35;100180.81;1706675;82;21170;-40
2021/01/22 10:37:40;;;;;;;25.75;19.65;;;;;;;3.19;69.37;100179.00;1715250;81;21137;-41
2021/01/22 10:40:10;;;;;;;28.55;21.50;;;;;;;3.22;69.41;100179.36;1697063;82;21287;-39
2021/01/22 10:42:37;;;;;;;29.45;21.73;;;;;;;3.27;69.32;100174.80;1675896;83;21157;-39
2021/01/22 10:45:06;;;;;;;23.38;18.65;;;;;;;3.32;69.12;100176.82;1699516;82;21657;-40
2021/01/22 10:47:34;;;;;;;24.25;18.70;;;;;;;3.37;69.14;100168.77;1696627;82;22117;-41
2021/01/22 10:50:18;;;;;;;22.30;17.70;;;;;;;3.43;69.02;100167.26;1697275;84;21157;-43
2021/01/22 10:52:43;;;;;;;24.43;19.90;;;;;;;3.46;68.76;100161.41;1676960;82;21508;-39
2021/01/22 10:55:12;;;;;;;23.47;17.42;;;;;;;3.51;68.72;100153.81;1697957;82;21150;-40
2021/01/22 10:57:39;;;;;;;25.00;18.55;;;;;;;3.54;68.59;100145.78;1693710;82;21138;-39
2021/01/22 11:00:08;;;;;;;24.27;19.57;;;;;;;3.59;68.64;100149.98;1693521;82;21551;-45
2021/01/22 11:02:36;;;;;;;24.40;18.15;;;;;;;3.66;68.57;100143.58;1695498;82;21942;-38
2021/01/22 11:05:06;;;;;;;24.02;19.00;;;;;;;3.74;68.23;100138.49;1694895;82;21572;-41
2021/01/22 11:07:34;;;;;;;26.73;20.52;;;;;;;3.76;68.13;100137.98;1699075;82;21677;-38
2021/01/22 11:10:04;;;;;;;25.88;19.17;;;;;;;3.76;67.89;100140.16;1705699;81;21131;-39
2021/01/22 11:12:31;;;;;;;25.40;20.25;;;;;;;3.77;67.85;100131.78;1698176;82;21177;-39
2021/01/22 11:14:59;;;;;;;24.40;19.80;;;;;;;3.78;67.76;100130.85;1710320;81;21125;-38
2021/01/22 11:17:27;;;;;;;22.85;18.23;;;;;;;3.78;67.61;100122.94;1713668;81;21157;-43
2021/01/22 11:19:56;;;;;;;32.23;24.98;;;;;;;3.75;67.56;100121.73;1704519;82;21121;-49
2021/01/22 11:22:24;;;;;;;36.88;26.48;;;;;;;3.72;67.64;100126.67;1699136;82;21153;-39
2021/01/22 11:24:51;;;;;;;34.70;24.15;;;;;;;3.71;67.65;100109.59;1710471;81;21206;-42
2021/01/22 11:27:19;;;;;;;28.87;21.52;;;;;;;3.67;67.56;100111.00;1695470;82;21130;-40
2021/01/22 11:29:46;;;;;;;37.53;26.75;;;;;;;3.63;67.54;100104.59;1707598;81;21173;-43
2021/01/22 11:32:14;;;;;;;31.07;24.40;;;;;;;3.58;67.72;100102.55;1699473;82;21118;-39
2021/01/22 11:34:42;;;;;;;35.38;25.85;;;;;;;3.56;67.81;100094.72;1699435;82;21560;-39